< Cyclone 201013 2011 Season Cyclone 201201 >
Cyclone 201129 (Errol)
General InformationDetailed Track InformationTrack Information on Google MapsList of All Images || ResourceGoogle EarthGE AnimationAtom FeedGeoJSON
Detalied Best Track Wind (Time Zone = UTC)
Year Month Day Hour Lat. Long. Wind (kt) Gust (kt) Direc. of Major Storm Axis Radius of Major Storm Axis (nm) Radius of Minor Storm Axis (nm) Direc. of Major Gale Axis Radius of Major Gale Axis (nm) Radius of Minor Gale Axis (nm) Image
2011 4 12 00 -10.9 125.0 0 -1 symmetric - - symmetric - - Image
2011 4 12 06 -11.1 125.4 0 -1 symmetric - - symmetric - - Image
2011 4 12 12 -11.4 125.5 0 -1 symmetric - - symmetric - - Image
2011 4 12 18 -11.7 125.5 0 -1 symmetric - - symmetric - - Image
2011 4 13 00 -11.7 125.8 0 -1 symmetric - - symmetric - - Image
2011 4 13 06 -11.8 125.9 0 -1 symmetric - - symmetric - - Image
2011 4 13 12 -11.8 126.0 0 -1 symmetric - - symmetric - - Image
2011 4 13 18 -11.8 125.9 25 -1 symmetric - - symmetric - - Image
2011 4 14 00 -12.2 126.1 25 -1 symmetric - - symmetric - - Image
2011 4 14 03 -12.2 126.2 25 45 symmetric - - symmetric - - Image
2011 4 14 06 -12.2 126.2 25 45 symmetric - - symmetric - - Image
2011 4 14 09 -12.4 126.3 25 45 symmetric - - symmetric - - Image
2011 4 14 12 -12.4 126.3 25 45 symmetric - - symmetric - - Image
2011 4 14 18 -12.5 126.3 30 45 symmetric - - symmetric - - Image
2011 4 14 21 -12.6 126.2 30 45 symmetric - - symmetric - - Image
2011 4 15 00 -12.6 126.1 35 -1 symmetric - - symmetric - - Image
2011 4 15 03 -12.6 126.1 40 55 symmetric - - symmetric - - Image
2011 4 15 06 -12.6 126.1 40 55 symmetric - - symmetric - - Image
2011 4 15 09 -12.6 125.9 40 55 symmetric - - symmetric - - Image
2011 4 15 12 -12.5 126.0 40 55 symmetric - - symmetric - - Image
2011 4 15 15 -12.3 125.8 40 55 symmetric - - symmetric - - Image
2011 4 15 18 -12.0 125.4 40 55 symmetric - - symmetric - - Image
2011 4 15 21 -11.9 125.3 45 65 symmetric - - symmetric - - Image
2011 4 16 00 -11.6 125.1 50 70 symmetric - - symmetric - - Image
2011 4 16 03 -11.4 124.9 55 80 symmetric - - symmetric - - Image
2011 4 16 06 -11.2 124.8 55 80 symmetric - - symmetric - - Image
2011 4 16 09 -11.1 124.7 55 75 symmetric - - symmetric - - Image
2011 4 16 12 -10.9 124.7 55 75 symmetric - - symmetric - - Image
2011 4 16 15 -10.9 124.6 55 75 symmetric - - symmetric - - Image
2011 4 16 18 -11.0 124.4 50 70 symmetric - - symmetric - - Image
2011 4 17 00 -10.8 124.1 50 70 symmetric - - symmetric - - Image
2011 4 17 06 -10.9 124.0 40 55 symmetric - - symmetric - - Image
2011 4 17 12 -10.9 123.2 35 50 symmetric - - symmetric - - Image
2011 4 17 18 -10.5 123.6 35 50 symmetric - - symmetric - - Image
2011 4 18 00 -10.1 123.5 30 45 symmetric - - symmetric - - Image
< Cyclone 201013 2011 Season Cyclone 201201 >

Help